createdAt,value
2019-03-31T00:01:14.499Z,170.07
2019-03-31T00:03:22.788Z,164.67
2019-03-31T00:05:30.984Z,161.67
2019-03-31T00:07:39.211Z,157.57
2019-03-31T00:09:47.468Z,170.70
2019-03-31T00:11:55.737Z,181.50
2019-03-31T00:14:03.956Z,176.27
2019-03-31T00:16:12.329Z,164.57
2019-03-31T00:18:20.515Z,166.53
2019-03-31T00:20:28.795Z,167.50
2019-03-31T00:22:36.978Z,153.87
2019-03-31T00:24:45.377Z,158.77
2019-03-31T00:26:53.663Z,156.83
2019-03-31T00:29:01.862Z,149.17
2019-03-31T00:31:21.417Z,157.90
2019-03-31T00:33:20.180Z,157.67
2019-03-31T00:35:28.394Z,155.33
2019-03-31T00:37:36.679Z,154.07
2019-03-31T00:39:44.982Z,155.13
2019-03-31T00:41:53.155Z,157.90
2019-03-31T00:44:01.326Z,156.30
2019-03-31T00:46:09.560Z,157.03
2019-03-31T00:48:17.823Z,154.23
2019-03-31T00:50:26.078Z,152.67
2019-03-31T00:52:34.278Z,153.30
2019-03-31T00:54:42.510Z,145.20
2019-03-31T00:56:50.765Z,144.97
2019-03-31T00:58:59.020Z,159.43
2019-03-31T01:01:36.256Z,155.53
2019-03-31T01:03:39.147Z,145.97
2019-03-31T01:05:47.821Z,154.60
2019-03-31T01:07:56.756Z,152.50
2019-03-31T01:10:06.143Z,158.60
2019-03-31T01:12:14.826Z,165.17
2019-03-31T01:14:23.627Z,160.73
2019-03-31T01:16:34.008Z,162.53
2019-03-31T01:18:42.332Z,164.80
2019-03-31T01:20:50.878Z,169.17
2019-03-31T01:22:59.027Z,178.77
2019-03-31T01:25:08.452Z,164.10
2019-03-31T01:27:18.785Z,176.10
2019-03-31T01:29:26.986Z,165.33
2019-03-31T01:31:49.241Z,174.60
2019-03-31T01:33:45.353Z,161.73
2019-03-31T01:35:53.704Z,164.47
2019-03-31T01:38:01.961Z,164.77
2019-03-31T01:40:10.404Z,148.03
2019-03-31T01:42:18.558Z,145.50
2019-03-31T01:44:26.941Z,145.93
2019-03-31T01:46:35.143Z,143.57
2019-03-31T01:48:43.367Z,142.63
2019-03-31T01:50:51.543Z,151.27
2019-03-31T01:52:59.792Z,146.70
2019-03-31T01:55:08.949Z,142.33
2019-03-31T01:57:17.166Z,138.53
2019-03-31T01:59:25.387Z,136.17
2019-03-31T02:01:33.718Z,131.37
2019-03-31T02:03:41.932Z,139.83
2019-03-31T02:05:50.276Z,140.07
2019-03-31T02:07:58.481Z,144.23
2019-03-31T02:10:07.840Z,130.17
2019-03-31T02:12:16.032Z,143.53
2019-03-31T02:14:24.259Z,143.03
2019-03-31T02:16:32.457Z,132.37
2019-03-31T02:18:40.660Z,128.83
2019-03-31T02:20:48.864Z,139.83
2019-03-31T02:22:57.309Z,137.20
2019-03-31T02:25:05.891Z,130.80
2019-03-31T02:27:14.083Z,130.03
2019-03-31T02:29:22.339Z,129.93
2019-03-31T02:31:30.564Z,124.33
2019-03-31T02:33:38.764Z,132.60
2019-03-31T02:35:47.111Z,127.67
2019-03-31T02:37:55.292Z,128.23
2019-03-31T02:40:03.496Z,131.77
2019-03-31T02:42:11.701Z,123.77
2019-03-31T02:44:19.875Z,126.43
2019-03-31T02:46:28.188Z,121.90
2019-03-31T02:48:36.400Z,127.83
2019-03-31T02:50:52.411Z,127.87
2019-03-31T02:53:00.932Z,119.93
2019-03-31T02:55:09.291Z,124.73
2019-03-31T02:57:19.686Z,123.87
2019-03-31T02:59:29.601Z,120.57
2019-03-31T03:01:39.002Z,122.30
2019-03-31T03:03:50.153Z,119.10
2019-03-31T03:06:01.806Z,113.27
2019-03-31T03:08:11.460Z,117.30
2019-03-31T03:10:21.024Z,112.03
2019-03-31T03:12:33.600Z,116.23
2019-03-31T03:14:43.555Z,114.43
2019-03-31T03:16:51.853Z,110.60
2019-03-31T03:19:00.368Z,105.47
2019-03-31T03:21:08.563Z,110.27
2019-03-31T03:23:16.744Z,113.17
2019-03-31T03:25:24.953Z,110.50
2019-03-31T03:27:33.146Z,107.70
2019-03-31T03:29:41.400Z,104.47
2019-03-31T03:31:49.674Z,99.37
2019-03-31T03:33:58.759Z,112.30
2019-03-31T03:36:06.946Z,104.93
2019-03-31T03:38:15.119Z,106.77
2019-03-31T03:40:23.303Z,109.93
2019-03-31T03:42:31.500Z,105.13
2019-03-31T03:44:39.683Z,103.03
2019-03-31T03:46:47.843Z,104.10
2019-03-31T03:48:56.129Z,99.87
2019-03-31T03:51:04.265Z,105.20
2019-03-31T03:53:12.415Z,96.77
2019-03-31T03:55:20.644Z,101.70
2019-03-31T03:57:28.842Z,98.03
2019-03-31T03:59:37.060Z,91.27
2019-03-31T04:01:45.570Z,109.17
2019-03-31T04:03:53.779Z,99.03
2019-03-31T04:06:01.985Z,98.07
2019-03-31T04:08:10.210Z,99.53
2019-03-31T04:11:21.241Z,100.07
2019-03-31T04:13:27.157Z,94.43
2019-03-31T04:15:35.335Z,94.23
2019-03-31T04:17:43.501Z,91.83
2019-03-31T04:19:51.714Z,105.17
2019-03-31T04:21:59.886Z,93.23
2019-03-31T04:24:08.083Z,94.07
2019-03-31T04:26:16.388Z,99.73
2019-03-31T04:28:24.563Z,89.20
2019-03-31T04:30:32.730Z,102.33
2019-03-31T04:32:40.905Z,91.87
2019-03-31T04:34:49.079Z,101.17
2019-03-31T04:36:57.258Z,103.43
2019-03-31T04:39:07.250Z,96.50
2019-03-31T04:41:15.561Z,98.40
2019-03-31T04:43:23.843Z,99.23
2019-03-31T04:45:32.166Z,95.17
2019-03-31T04:47:40.585Z,100.57
2019-03-31T04:49:48.825Z,96.00
2019-03-31T04:51:56.995Z,93.13
2019-03-31T04:54:05.304Z,90.13
2019-03-31T04:56:13.447Z,97.93
2019-03-31T04:58:21.626Z,94.80
2019-03-31T05:00:29.821Z,89.73
2019-03-31T05:02:37.961Z,95.23
2019-03-31T05:04:46.191Z,99.00
2019-03-31T05:06:54.383Z,102.93
2019-03-31T05:09:02.630Z,105.33
2019-03-31T05:11:10.819Z,103.80
2019-03-31T05:13:19.011Z,109.83
2019-03-31T05:15:27.270Z,104.63
2019-03-31T05:17:36.019Z,108.43
2019-03-31T05:19:44.398Z,106.77
2019-03-31T05:21:52.676Z,101.30
2019-03-31T05:24:00.834Z,101.70
2019-03-31T05:26:09.059Z,106.30
2019-03-31T05:28:17.201Z,93.07
2019-03-31T05:30:25.438Z,86.67
2019-03-31T05:32:33.640Z,80.53
2019-03-31T05:34:41.892Z,87.80
2019-03-31T05:36:50.213Z,83.80
2019-03-31T05:38:58.427Z,81.40
2019-03-31T05:41:06.629Z,80.37
2019-03-31T05:43:14.886Z,75.13
2019-03-31T05:45:23.086Z,76.63
2019-03-31T05:47:31.260Z,78.57
2019-03-31T05:49:39.396Z,75.00
2019-03-31T05:51:47.631Z,80.77
2019-03-31T05:53:55.896Z,75.43
2019-03-31T05:56:04.580Z,82.80
2019-03-31T05:58:12.773Z,80.10
2019-03-31T06:00:54.696Z,87.23
2019-03-31T06:03:02.919Z,83.37
2019-03-31T06:05:11.249Z,77.07
2019-03-31T06:07:19.463Z,83.43
2019-03-31T06:09:27.678Z,80.40
2019-03-31T06:11:35.836Z,86.20
2019-03-31T06:13:44.158Z,76.63
2019-03-31T06:15:52.368Z,77.33
2019-03-31T06:18:00.572Z,76.97
2019-03-31T06:20:09.235Z,76.80
2019-03-31T06:22:17.527Z,76.43
2019-03-31T06:24:25.760Z,74.77
2019-03-31T06:26:34.041Z,73.00
2019-03-31T06:28:42.241Z,74.43
2019-03-31T06:30:50.597Z,70.13
2019-03-31T06:32:58.933Z,66.77
2019-03-31T06:35:07.914Z,65.10
2019-03-31T06:37:16.222Z,63.77
2019-03-31T06:39:24.454Z,62.93
2019-03-31T06:41:32.765Z,65.43
2019-03-31T06:43:40.931Z,67.77
2019-03-31T06:45:49.212Z,63.00
2019-03-31T06:47:58.030Z,67.53
2019-03-31T06:50:07.251Z,68.13
2019-03-31T06:52:15.596Z,60.17
2019-03-31T06:54:23.885Z,60.70
2019-03-31T06:56:32.243Z,64.83
2019-03-31T06:58:40.431Z,55.90
2019-03-31T07:00:48.739Z,60.03
2019-03-31T07:02:57.038Z,57.77
2019-03-31T07:05:05.961Z,54.50
2019-03-31T07:07:14.181Z,58.20
2019-03-31T07:09:22.422Z,62.10
2019-03-31T07:11:30.909Z,54.07
2019-03-31T07:13:39.211Z,56.17
2019-03-31T07:15:47.553Z,52.23
2019-03-31T07:17:55.777Z,51.87
2019-03-31T07:20:03.989Z,52.47
2019-03-31T07:22:12.257Z,55.70
2019-03-31T07:24:20.466Z,50.83
2019-03-31T07:26:28.924Z,54.30
2019-03-31T07:28:37.210Z,51.73
2019-03-31T07:30:45.488Z,47.00
2019-03-31T07:32:53.797Z,48.27
2019-03-31T07:35:02.065Z,48.17
2019-03-31T07:37:10.449Z,49.90
2019-03-31T07:39:18.960Z,46.93
2019-03-31T07:41:27.566Z,44.57
2019-03-31T07:43:35.922Z,44.73
2019-03-31T07:45:44.171Z,49.30
2019-03-31T07:47:52.551Z,46.27
2019-03-31T07:50:00.973Z,42.90
2019-03-31T07:52:09.308Z,46.67
2019-03-31T07:54:17.518Z,42.77
2019-03-31T07:56:25.843Z,47.83
2019-03-31T07:58:34.318Z,50.33
2019-03-31T08:00:42.721Z,41.70
2019-03-31T08:02:51.352Z,45.00
2019-03-31T08:04:59.642Z,46.50
2019-03-31T08:07:07.821Z,44.93
2019-03-31T08:09:16.213Z,45.33
2019-03-31T08:11:24.550Z,40.23
2019-03-31T08:13:32.812Z,52.83
2019-03-31T08:15:41.076Z,42.50
2019-03-31T08:17:49.509Z,45.43
2019-03-31T08:19:57.753Z,44.13
2019-03-31T08:22:06.454Z,43.77
2019-03-31T08:24:14.885Z,47.40
2019-03-31T08:26:23.288Z,47.07
2019-03-31T08:28:31.662Z,48.83
2019-03-31T08:30:40.141Z,49.63
2019-03-31T08:32:48.459Z,44.77
2019-03-31T08:34:56.922Z,48.70
2019-03-31T08:37:05.385Z,49.10
2019-03-31T08:39:13.733Z,47.60
2019-03-31T08:41:22.014Z,51.87
2019-03-31T08:43:30.288Z,50.83
2019-03-31T08:45:38.656Z,120.00
2019-03-31T08:47:46.942Z,246.13
2019-03-31T08:49:55.332Z,309.13
2019-03-31T08:52:03.815Z,76.10
2019-03-31T08:54:12.268Z,59.73
2019-03-31T08:56:20.727Z,47.77
2019-03-31T08:58:29.603Z,56.17
2019-03-31T09:00:49.013Z,48.87
2019-03-31T09:02:57.636Z,47.77
2019-03-31T09:05:07.766Z,52.93
2019-03-31T09:07:16.082Z,51.80
2019-03-31T09:09:24.571Z,53.97
2019-03-31T09:11:32.981Z,53.57
2019-03-31T09:13:41.446Z,50.30
2019-03-31T09:15:49.847Z,52.13
2019-03-31T09:17:59.903Z,51.40
2019-03-31T09:20:09.508Z,49.77
2019-03-31T09:22:17.995Z,46.97
2019-03-31T09:24:26.532Z,54.13
2019-03-31T09:26:34.995Z,44.70
2019-03-31T09:28:43.417Z,46.23
2019-03-31T09:30:51.831Z,42.87
2019-03-31T09:33:00.477Z,49.53
2019-03-31T09:35:11.348Z,47.83
2019-03-31T09:37:19.937Z,49.97
2019-03-31T09:39:28.587Z,49.07
2019-03-31T09:41:37.032Z,46.87
2019-03-31T09:43:45.491Z,45.80
2019-03-31T09:45:53.949Z,52.70
2019-03-31T09:48:02.385Z,48.23
2019-03-31T09:50:16.995Z,48.33
2019-03-31T09:52:23.661Z,48.73
2019-03-31T09:54:32.006Z,48.63
2019-03-31T09:56:40.493Z,53.10
2019-03-31T09:58:48.945Z,50.57
2019-03-31T10:00:57.590Z,49.43
2019-03-31T10:03:05.909Z,48.17
2019-03-31T10:05:14.937Z,54.77
2019-03-31T10:07:23.950Z,48.40
2019-03-31T10:09:32.460Z,49.20
2019-03-31T10:11:40.705Z,53.77
2019-03-31T10:13:48.941Z,60.10
2019-03-31T10:15:57.174Z,75.83
2019-03-31T10:18:05.603Z,78.17
2019-03-31T10:20:14.099Z,54.80
2019-03-31T10:22:22.668Z,49.93
2019-03-31T10:24:31.557Z,50.77
2019-03-31T10:26:39.927Z,47.27
2019-03-31T10:28:48.317Z,53.80
2019-03-31T10:30:56.856Z,49.47
2019-03-31T10:33:05.710Z,46.13
2019-03-31T10:35:14.379Z,47.10
2019-03-31T10:37:22.717Z,50.13
2019-03-31T10:39:30.985Z,54.63
2019-03-31T10:41:39.667Z,50.27
2019-03-31T10:43:47.963Z,52.83
2019-03-31T10:45:56.247Z,45.93
2019-03-31T10:48:19.286Z,53.43
2019-03-31T10:50:15.327Z,49.07
2019-03-31T10:52:24.118Z,53.17
2019-03-31T10:54:32.674Z,51.77
2019-03-31T10:56:41.168Z,52.70
2019-03-31T10:58:49.608Z,49.60
2019-03-31T11:00:57.951Z,51.33
2019-03-31T11:03:09.046Z,49.87
2019-03-31T11:05:18.259Z,53.00
2019-03-31T11:07:26.745Z,51.77
2019-03-31T11:09:35.252Z,56.90
2019-03-31T11:11:43.488Z,53.63
2019-03-31T11:13:52.972Z,55.50
2019-03-31T11:16:01.357Z,51.97
2019-03-31T11:18:09.862Z,57.67
2019-03-31T11:20:18.319Z,50.57
2019-03-31T11:22:37.294Z,51.33
2019-03-31T11:24:46.012Z,56.23
2019-03-31T11:26:54.884Z,56.83
2019-03-31T11:29:04.585Z,61.93
2019-03-31T11:31:13.153Z,57.53
2019-03-31T11:33:21.910Z,56.60
2019-03-31T11:35:30.443Z,60.97
2019-03-31T11:37:39.378Z,52.70
2019-03-31T11:39:48.242Z,59.07
2019-03-31T11:41:56.716Z,50.55
2019-03-31T11:44:05.641Z,58.17
2019-03-31T11:46:14.229Z,54.67
2019-03-31T11:48:23.325Z,45.87
2019-03-31T11:50:31.861Z,54.18
2019-03-31T11:52:40.263Z,53.63
2019-03-31T11:54:49.165Z,43.95
2019-03-31T11:56:57.576Z,46.35
2019-03-31T11:59:06.409Z,45.37
2019-03-31T12:01:14.946Z,51.98
2019-03-31T12:03:23.612Z,50.57
2019-03-31T12:05:32.437Z,46.97
2019-03-31T12:07:47.105Z,49.07
2019-03-31T12:09:51.275Z,60.73
2019-03-31T12:11:59.845Z,50.37
2019-03-31T12:14:08.950Z,43.17
2019-03-31T12:16:17.934Z,49.93
2019-03-31T12:18:26.869Z,49.83
2019-03-31T12:20:35.442Z,54.75
2019-03-31T12:22:43.877Z,51.63
2019-03-31T12:24:52.162Z,46.50
2019-03-31T12:27:00.576Z,44.70
2019-03-31T12:29:08.858Z,46.77
2019-03-31T12:31:18.432Z,50.23
2019-03-31T12:33:26.792Z,51.63
2019-03-31T12:35:35.041Z,49.87
2019-03-31T12:37:43.642Z,48.40
2019-03-31T12:39:52.535Z,55.40
2019-03-31T12:42:00.848Z,48.17
2019-03-31T12:44:09.129Z,47.23
2019-03-31T12:46:17.541Z,48.17
2019-03-31T12:48:25.915Z,61.63
2019-03-31T12:50:34.293Z,45.50
2019-03-31T12:52:47.504Z,47.78
2019-03-31T12:54:52.664Z,47.00
2019-03-31T12:57:01.377Z,50.10
2019-03-31T12:59:10.063Z,74.43
2019-03-31T13:01:18.422Z,48.67
2019-03-31T13:03:26.843Z,115.82
2019-03-31T13:05:35.185Z,46.83
2019-03-31T13:07:55.676Z,43.07
2019-03-31T13:09:54.105Z,44.90
2019-03-31T13:12:02.451Z,46.57
2019-03-31T13:14:10.663Z,45.03
2019-03-31T13:16:18.929Z,46.30
2019-03-31T13:18:28.191Z,45.50
2019-03-31T13:20:36.697Z,48.27
2019-03-31T13:22:45.962Z,46.33
2019-03-31T13:24:54.516Z,45.17
2019-03-31T13:27:03.106Z,45.07
2019-03-31T13:29:11.411Z,43.23
2019-03-31T13:31:19.816Z,43.70
2019-03-31T13:33:28.107Z,42.53
2019-03-31T13:35:36.396Z,43.83
2019-03-31T13:37:45.078Z,46.00
2019-03-31T13:39:53.441Z,40.83
2019-03-31T13:42:01.843Z,43.37
2019-03-31T13:44:10.031Z,44.17
2019-03-31T13:46:18.234Z,47.17
2019-03-31T13:48:26.414Z,46.95
2019-03-31T13:50:34.651Z,38.40
2019-03-31T13:52:43.008Z,42.37
2019-03-31T13:54:51.261Z,41.83
2019-03-31T13:56:59.680Z,45.13
2019-03-31T13:59:09.229Z,39.80
2019-03-31T14:01:17.802Z,41.30
2019-03-31T14:03:26.089Z,37.97
2019-03-31T14:05:34.434Z,41.73
2019-03-31T14:07:42.761Z,42.40
2019-03-31T14:09:51.089Z,38.63
2019-03-31T14:12:00.106Z,47.03
2019-03-31T14:14:08.443Z,43.50
2019-03-31T14:16:16.733Z,37.03
2019-03-31T14:18:25.001Z,31.60
2019-03-31T14:20:33.390Z,33.83
2019-03-31T14:22:41.859Z,30.83
2019-03-31T14:24:50.335Z,33.60
2019-03-31T14:26:58.659Z,33.60
2019-03-31T14:29:07.082Z,28.00
2019-03-31T14:31:15.388Z,137.67
2019-03-31T14:33:23.808Z,341.93
2019-03-31T14:35:32.314Z,276.10
2019-03-31T14:37:40.624Z,64.70
2019-03-31T14:39:48.878Z,95.57
2019-03-31T14:41:57.326Z,76.03
2019-03-31T14:44:06.103Z,67.40
2019-03-31T14:46:14.434Z,47.43
2019-03-31T14:48:22.657Z,39.03
2019-03-31T14:50:36.880Z,26.27
2019-03-31T14:52:46.079Z,27.83
2019-03-31T14:54:55.992Z,23.63
2019-03-31T14:57:06.041Z,18.93
2019-03-31T14:59:15.203Z,48.37
2019-03-31T15:01:25.237Z,18.50
2019-03-31T15:03:37.482Z,18.80
2019-03-31T15:05:47.064Z,41.63
2019-03-31T15:07:58.539Z,18.03
2019-03-31T15:10:06.758Z,18.20
2019-03-31T15:12:15.060Z,18.00
2019-03-31T15:14:23.394Z,31.80
2019-03-31T15:16:31.917Z,17.23
2019-03-31T15:18:40.401Z,20.70
2019-03-31T15:20:48.997Z,27.30
2019-03-31T15:23:02.634Z,16.50
2019-03-31T15:25:11.442Z,18.27
2019-03-31T15:27:19.837Z,16.60
2019-03-31T15:29:29.098Z,23.30
2019-03-31T15:31:37.538Z,21.90
2019-03-31T15:33:46.292Z,20.03
2019-03-31T15:35:54.608Z,14.03
2019-03-31T15:38:03.780Z,14.33
2019-03-31T15:40:12.349Z,15.27
2019-03-31T15:42:20.975Z,18.13
2019-03-31T15:44:30.276Z,16.63
2019-03-31T15:46:38.622Z,15.53
2019-03-31T15:48:47.356Z,12.33
2019-03-31T15:50:55.956Z,19.17
2019-03-31T15:53:04.530Z,18.37
2019-03-31T15:55:14.111Z,12.50
2019-03-31T15:57:22.611Z,11.50
2019-03-31T15:59:30.991Z,9.80
2019-03-31T16:01:39.262Z,13.23
2019-03-31T16:03:47.553Z,12.87
2019-03-31T16:05:55.774Z,14.73
2019-03-31T16:08:03.573Z,11.43
2019-03-31T16:10:11.443Z,12.47
2019-03-31T16:12:18.888Z,12.27
2019-03-31T16:14:27.089Z,12.87
2019-03-31T16:16:34.522Z,9.90
2019-03-31T16:18:41.971Z,16.17
2019-03-31T16:20:49.390Z,8.87
2019-03-31T16:22:57.848Z,10.97
2019-03-31T16:25:09.986Z,8.67
2019-03-31T16:27:17.761Z,10.00
2019-03-31T16:29:25.582Z,7.60
2019-03-31T16:31:33.237Z,11.63
2019-03-31T16:33:40.795Z,7.53
2019-03-31T16:35:48.394Z,11.17
2019-03-31T16:37:56.252Z,8.50
2019-03-31T16:40:03.953Z,5.67
2019-03-31T16:42:11.821Z,8.93
2019-03-31T16:44:19.573Z,7.03
2019-03-31T16:46:27.130Z,8.90
2019-03-31T16:48:34.841Z,7.93
2019-03-31T16:50:42.572Z,10.90
2019-03-31T16:52:52.653Z,7.73
2019-03-31T16:55:00.091Z,9.20
2019-03-31T16:57:07.624Z,7.67
2019-03-31T16:59:15.270Z,9.43
2019-03-31T17:01:22.911Z,10.73
2019-03-31T17:03:30.847Z,16.30
2019-03-31T17:05:38.395Z,8.80
2019-03-31T17:07:46.340Z,7.93
2019-03-31T17:09:53.923Z,12.43
2019-03-31T17:12:02.113Z,15.27
2019-03-31T17:14:09.583Z,13.03
2019-03-31T17:16:17.435Z,19.80
2019-03-31T17:18:25.181Z,27.80
2019-03-31T17:20:32.855Z,18.83
2019-03-31T17:22:40.748Z,28.50
2019-03-31T17:24:48.610Z,19.57
2019-03-31T17:26:56.223Z,22.53
2019-03-31T17:29:04.298Z,24.20
2019-03-31T17:31:11.906Z,29.20
2019-03-31T17:33:19.584Z,25.40
2019-03-31T17:35:27.760Z,51.63
2019-03-31T17:37:35.747Z,42.40
2019-03-31T17:39:43.511Z,33.50
2019-03-31T17:41:51.461Z,31.03
2019-03-31T17:43:59.402Z,44.97
2019-03-31T17:46:07.280Z,41.63
2019-03-31T17:48:14.939Z,26.07
2019-03-31T17:50:22.502Z,25.33
2019-03-31T17:52:30.220Z,26.27
2019-03-31T17:54:38.020Z,29.77
2019-03-31T17:56:46.393Z,18.13
2019-03-31T17:58:54.470Z,17.40
2019-03-31T18:01:02.083Z,18.77
2019-03-31T18:03:09.707Z,14.77
2019-03-31T18:05:17.901Z,15.40
2019-03-31T18:07:25.591Z,16.33
2019-03-31T18:09:33.199Z,18.90
2019-03-31T18:11:40.876Z,15.93
2019-03-31T18:13:48.439Z,24.70
2019-03-31T18:15:56.119Z,24.63
2019-03-31T18:18:03.630Z,45.43
2019-03-31T18:20:11.756Z,24.77
2019-03-31T18:22:19.501Z,30.90
2019-03-31T18:24:27.288Z,84.53
2019-03-31T18:26:34.964Z,66.47
2019-03-31T18:28:43.840Z,65.10
2019-03-31T18:30:52.114Z,77.37
2019-03-31T18:32:59.754Z,23.63
2019-03-31T18:35:08.360Z,56.47
2019-03-31T18:37:16.679Z,45.37
2019-03-31T18:39:24.355Z,24.53
2019-03-31T18:41:32.218Z,24.60
2019-03-31T18:43:50.658Z,46.73
2019-03-31T18:45:48.995Z,31.37
2019-03-31T18:47:56.495Z,42.67
2019-03-31T18:50:04.149Z,20.87
2019-03-31T18:52:11.753Z,14.83
2019-03-31T18:54:40.848Z,17.63
2019-03-31T18:57:03.029Z,16.40
2019-03-31T18:59:27.964Z,15.70
2019-03-31T19:01:42.531Z,14.73
2019-03-31T19:04:07.877Z,12.60
2019-03-31T19:06:33.009Z,14.60
2019-03-31T19:09:05.782Z,8.50
2019-03-31T19:11:35.138Z,10.43
2019-03-31T19:14:01.556Z,12.27
2019-03-31T19:16:22.127Z,9.93
2019-03-31T19:18:40.644Z,12.73
2019-03-31T19:21:10.875Z,10.93
2019-03-31T19:23:36.516Z,13.73
2019-03-31T19:26:15.239Z,16.37
2019-03-31T19:28:36.096Z,12.80
2019-03-31T19:31:05.469Z,16.17
2019-03-31T19:33:30.727Z,12.27
2019-03-31T19:35:47.053Z,19.67
2019-03-31T19:38:13.989Z,21.53
2019-03-31T19:40:33.009Z,13.50
2019-03-31T19:43:14.753Z,16.43
2019-03-31T19:45:37.931Z,12.97
2019-03-31T19:47:51.110Z,18.47
2019-03-31T19:50:09.180Z,13.40
2019-03-31T19:52:38.459Z,10.87
2019-03-31T19:55:04.706Z,10.67
2019-03-31T19:57:40.220Z,12.67
2019-03-31T20:00:04.042Z,17.03
2019-03-31T20:02:29.216Z,12.23
2019-03-31T20:05:14.022Z,12.47
2019-03-31T20:07:29.003Z,9.93
2019-03-31T20:09:55.251Z,11.77
2019-03-31T20:12:27.732Z,11.50
2019-03-31T20:14:54.787Z,12.30
2019-03-31T20:17:12.024Z,9.13
2019-03-31T20:19:38.215Z,15.40
2019-03-31T20:21:54.032Z,12.53
2019-03-31T20:24:19.116Z,9.60
2019-03-31T20:26:45.200Z,10.07
2019-03-31T20:29:10.686Z,13.00
2019-03-31T20:31:31.599Z,12.17
2019-03-31T20:34:01.160Z,6.80
2019-03-31T20:36:26.347Z,11.10
2019-03-31T20:39:03.160Z,8.00
2019-03-31T20:41:47.786Z,4.43
2019-03-31T20:43:54.186Z,9.03
2019-03-31T20:46:04.326Z,8.47
2019-03-31T20:48:11.717Z,8.37
2019-03-31T20:50:19.534Z,10.23
2019-03-31T20:52:28.263Z,8.00
2019-03-31T20:54:36.401Z,10.03
2019-03-31T20:56:44.149Z,7.67
2019-03-31T20:58:52.241Z,6.20
2019-03-31T21:00:59.855Z,8.50
2019-03-31T21:03:07.653Z,6.07
2019-03-31T21:05:15.315Z,5.37
2019-03-31T21:07:22.839Z,5.00
2019-03-31T21:09:44.293Z,9.57
2019-03-31T21:11:40.099Z,5.37
2019-03-31T21:13:47.609Z,5.30
2019-03-31T21:15:55.262Z,5.20
2019-03-31T21:18:02.824Z,6.80
2019-03-31T21:20:11.010Z,9.13
2019-03-31T21:22:18.581Z,10.87
2019-03-31T21:24:26.025Z,9.73
2019-03-31T21:26:33.529Z,8.83
2019-03-31T21:28:41.023Z,7.50
2019-03-31T21:30:48.596Z,6.47
2019-03-31T21:32:56.197Z,7.10
2019-03-31T21:35:03.672Z,6.40
2019-03-31T21:37:11.424Z,6.40
2019-03-31T21:39:19.615Z,8.53
2019-03-31T21:41:27.189Z,5.40
2019-03-31T21:43:34.606Z,10.53
2019-03-31T21:45:42.070Z,12.00
2019-03-31T21:47:49.497Z,7.27
2019-03-31T21:49:56.914Z,12.93
2019-03-31T21:52:04.324Z,8.93
2019-03-31T21:54:11.875Z,7.53
2019-03-31T21:56:19.372Z,7.73
2019-03-31T21:58:26.965Z,33.00
2019-03-31T22:00:49.187Z,47.67
2019-03-31T22:02:56.680Z,25.80
2019-03-31T22:05:04.315Z,29.53
2019-03-31T22:07:11.962Z,87.60
2019-03-31T22:09:19.694Z,89.90
2019-03-31T22:11:27.341Z,62.90
2019-03-31T22:13:34.877Z,56.83
2019-03-31T22:15:42.281Z,40.63
2019-03-31T22:17:49.945Z,54.90
2019-03-31T22:19:57.393Z,36.40
2019-03-31T22:22:04.889Z,32.17
2019-03-31T22:24:12.343Z,31.37
2019-03-31T22:26:20.132Z,32.07
2019-03-31T22:28:27.734Z,23.47
2019-03-31T22:30:37.956Z,21.73
2019-03-31T22:32:45.577Z,29.87
2019-03-31T22:34:53.057Z,21.87
2019-03-31T22:37:00.444Z,23.07
2019-03-31T22:39:09.091Z,14.30
2019-03-31T22:41:16.482Z,20.63
2019-03-31T22:43:23.910Z,22.40
2019-03-31T22:45:31.314Z,29.67
2019-03-31T22:47:38.800Z,31.20
2019-03-31T22:49:46.199Z,27.40
2019-03-31T22:51:56.410Z,26.10
2019-03-31T22:54:02.798Z,22.03
2019-03-31T22:56:12.709Z,15.50
2019-03-31T22:58:20.051Z,26.63
2019-03-31T23:00:28.872Z,22.37
2019-03-31T23:02:36.318Z,22.40
2019-03-31T23:04:43.715Z,31.60
2019-03-31T23:06:51.184Z,29.07
2019-03-31T23:08:58.611Z,27.40
2019-03-31T23:11:06.378Z,32.53
2019-03-31T23:13:13.738Z,20.43
2019-03-31T23:15:21.227Z,44.00
2019-03-31T23:17:28.618Z,57.57
2019-03-31T23:19:35.979Z,37.27
2019-03-31T23:21:43.325Z,55.80
2019-03-31T23:23:50.720Z,28.10
2019-03-31T23:25:58.058Z,26.60
2019-03-31T23:28:05.452Z,20.60
2019-03-31T23:30:13.613Z,28.17
2019-03-31T23:32:20.987Z,111.83
2019-03-31T23:34:28.401Z,322.93
2019-03-31T23:36:35.832Z,380.30
2019-03-31T23:38:43.250Z,401.50
2019-03-31T23:40:50.706Z,302.20
2019-03-31T23:42:58.085Z,169.00
2019-03-31T23:45:06.077Z,129.70
2019-03-31T23:47:13.518Z,99.83
2019-03-31T23:49:20.904Z,60.73
2019-03-31T23:51:28.250Z,44.60
2019-03-31T23:53:35.638Z,98.93
2019-03-31T23:55:43.028Z,75.87
2019-03-31T23:57:50.404Z,68.07
2019-03-31T23:59:57.800Z,46.77
